Terminal Aerodrome Forecast
Issued by NWS

Home | Current Version | Previous Version | Text Only | Print | Product List | Glossary On
Versions: 1 2 3 4 5 6 7 8 9 10 11 12 13 14 15 16 17 18 19 20 21 22
000
FTUS43 KDLH 222336
TAFBRD
TAF
KBRD 222336Z 2300/2324 VRB03KT P6SM BKN200
     FM230800 00000KT 6SM BR BKN200
      TEMPO 2308/2312 2SM BR
     FM231400 11005KT P6SM SCT080 BKN200
     FM231700 12010KT P6SM VCSH SCT025 BKN080
     FM232000 13010KT P6SM VCTS BKN025CB=

USA.gov is the U.S. government's official web portal to all federal, state and local government web resources and services.